Time;durP1;ratioP1;P1;durP2;ratioP2;P2;SDS_P1;SDS_P2;PMS_P1;PMS_P2;Temp;Humidity;BMP_temperature;BMP_pressure;BME280_temperature;BME280_humidity;BME280_pressure;Samples;Min_cycle;Max_cycle;Signal;HPM_P1;HPM_P2
2021/01/01 00:00:30;;;;;;;11.07;7.37;;;;;;;;;;5055044;28;20542;-74
2021/01/01 00:03:34;;;;;;;11.70;7.90;;;;;;;;;;5029324;28;20951;-74
2021/01/01 00:06:46;;;;;;;11.47;7.53;;;;;;;;;;5030740;28;21192;-74
2021/01/01 00:09:50;;;;;;;11.57;7.40;;;;;;;;;;5034706;28;20540;-74
2021/01/01 00:12:54;;;;;;;13.93;7.67;;;;;;;;;;5022595;28;20595;-74
2021/01/01 00:15:59;;;;;;;15.03;9.33;;;;;;;;;;5034627;28;20544;-74
2021/01/01 00:19:03;;;;;;;13.17;8.57;;;;;;;;;;5034807;28;20596;-74
2021/01/01 00:22:11;;;;;;;14.30;9.73;;;;;;;;;;5049539;28;20642;-74
2021/01/01 00:25:15;;;;;;;13.30;8.57;;;;;;;;;;5042127;28;21085;-74
2021/01/01 00:28:19;;;;;;;16.17;9.77;;;;;;;;;;5042393;28;21062;-74
2021/01/01 00:31:26;;;;;;;13.00;8.87;;;;;;;;;;5030160;28;20650;-74
2021/01/01 00:34:30;;;;;;;14.37;8.90;;;;;;;;;;5041890;28;20543;-74
2021/01/01 00:37:36;;;;;;;12.80;8.87;;;;;;;;;;5035537;28;21065;-74
2021/01/01 00:40:40;;;;;;;14.53;9.57;;;;;;;;;;5052998;28;20650;-75
2021/01/01 00:43:44;;;;;;;16.73;9.77;;;;;;;;;;5054268;28;20539;-74
2021/01/01 00:46:48;;;;;;;16.30;9.47;;;;;;;;;;5030639;28;20594;-74
2021/01/01 00:49:53;;;;;;;17.17;10.50;;;;;;;;;;5053958;28;20614;-75
2021/01/01 00:52:58;;;;;;;18.20;10.23;;;;;;;;;;5042096;28;20542;-75
2021/01/01 00:56:02;;;;;;;17.63;9.73;;;;;;;;;;5041545;28;20630;-75
2021/01/01 00:59:06;;;;;;;18.13;10.77;;;;;;;;;;5034020;28;20587;-75
2021/01/01 01:02:11;;;;;;;16.53;9.70;;;;;;;;;;5043362;28;20657;-74
2021/01/01 01:05:15;;;;;;;17.20;9.90;;;;;;;;;;5041684;28;20543;-74
2021/01/01 01:08:19;;;;;;;14.50;9.67;;;;;;;;;;5053385;28;20579;-74
2021/01/01 01:11:25;;;;;;;11.83;7.97;;;;;;;;;;5053743;28;21183;-74
2021/01/01 01:14:30;;;;;;;15.27;8.97;;;;;;;;;;5054450;28;20548;-74
2021/01/01 01:17:34;;;;;;;11.43;7.40;;;;;;;;;;5040935;28;20598;-74
2021/01/01 01:20:38;;;;;;;11.07;7.83;;;;;;;;;;5053587;28;20611;-74
2021/01/01 01:23:43;;;;;;;12.83;8.30;;;;;;;;;;5047892;28;20583;-74
2021/01/01 01:26:47;;;;;;;13.23;8.60;;;;;;;;;;5053580;28;20922;-74
2021/01/01 01:29:51;;;;;;;13.47;9.03;;;;;;;;;;5052605;28;20563;-74
2021/01/01 01:32:55;;;;;;;13.80;9.00;;;;;;;;;;5053197;28;20543;-74
2021/01/01 01:36:00;;;;;;;13.20;9.13;;;;;;;;;;5052906;28;20942;-74
2021/01/01 01:39:04;;;;;;;12.20;8.80;;;;;;;;;;5052802;28;20666;-74
2021/01/01 01:42:09;;;;;;;16.80;9.50;;;;;;;;;;5035012;28;20623;-74
2021/01/01 01:45:13;;;;;;;15.03;9.30;;;;;;;;;;5040920;28;20551;-74
2021/01/01 01:48:44;;;;;;;16.73;9.80;;;;;;;;;;5053085;28;20622;-74
2021/01/01 01:51:52;;;;;;;14.77;9.63;;;;;;;;;;5052553;28;20646;-74
2021/01/01 01:54:58;;;;;;;15.50;9.97;;;;;;;;;;5040008;28;20575;-75
2021/01/01 01:58:02;;;;;;;15.47;10.27;;;;;;;;;;5040993;28;21081;-74
2021/01/01 02:01:06;;;;;;;18.67;10.57;;;;;;;;;;5052720;28;20658;-74
2021/01/01 02:04:10;;;;;;;17.47;10.53;;;;;;;;;;5040482;28;21168;-74
2021/01/01 02:07:15;;;;;;;17.73;11.20;;;;;;;;;;5040276;28;20611;-74
2021/01/01 02:10:19;;;;;;;19.17;11.73;;;;;;;;;;5052921;28;20890;-75
2021/01/01 02:13:24;;;;;;;17.50;11.83;;;;;;;;;;5033122;28;20606;-74
2021/01/01 02:16:32;;;;;;;16.73;11.40;;;;;;;;;;5020698;28;20608;-74
2021/01/01 02:19:36;;;;;;;16.63;11.37;;;;;;;;;;5033050;28;20592;-74
2021/01/01 02:22:41;;;;;;;18.40;11.17;;;;;;;;;;5051115;28;21167;-75
2021/01/01 02:25:45;;;;;;;18.53;11.20;;;;;;;;;;5052910;28;20609;-75
2021/01/01 02:28:49;;;;;;;20.30;11.50;;;;;;;;;;5052930;28;20546;-74
2021/01/01 02:31:53;;;;;;;16.80;10.53;;;;;;;;;;5052341;28;20657;-75
2021/01/01 02:34:58;;;;;;;16.30;10.43;;;;;;;;;;5052875;28;20547;-74
2021/01/01 02:38:02;;;;;;;16.33;10.93;;;;;;;;;;5032891;28;20618;-75
2021/01/01 02:41:06;;;;;;;16.43;10.83;;;;;;;;;;5026219;28;20649;-74
2021/01/01 02:44:11;;;;;;;19.53;11.77;;;;;;;;;;5052472;28;20603;-74
2021/01/01 02:47:16;;;;;;;20.20;12.23;;;;;;;;;;5052405;28;20641;-74
2021/01/01 02:50:20;;;;;;;18.53;10.93;;;;;;;;;;5052996;28;20540;-74
2021/01/01 02:53:24;;;;;;;18.17;10.47;;;;;;;;;;5020651;28;21125;-74
2021/01/01 02:56:28;;;;;;;21.50;13.20;;;;;;;;;;5040345;28;20627;-74
2021/01/01 02:59:32;;;;;;;19.23;12.67;;;;;;;;;;5052600;28;20601;-74
2021/01/01 03:02:36;;;;;;;17.73;12.37;;;;;;;;;;5052843;28;20652;-74
2021/01/01 03:05:40;;;;;;;17.23;11.80;;;;;;;;;;5055896;28;20612;-75
2021/01/01 03:08:45;;;;;;;20.07;12.80;;;;;;;;;;5043618;28;20593;-75
2021/01/01 03:11:49;;;;;;;25.40;13.70;;;;;;;;;;5055709;28;20653;-74
2021/01/01 03:14:53;;;;;;;18.50;12.00;;;;;;;;;;5044120;28;20554;-74
2021/01/01 03:17:58;;;;;;;20.33;12.73;;;;;;;;;;5055698;28;20597;-74
2021/01/01 03:21:03;;;;;;;23.20;12.90;;;;;;;;;;5055327;28;21001;-74
2021/01/01 03:24:07;;;;;;;21.37;12.77;;;;;;;;;;5043093;28;20621;-74
2021/01/01 03:27:11;;;;;;;22.57;13.40;;;;;;;;;;5035623;28;20599;-74
2021/01/01 03:30:16;;;;;;;20.80;12.27;;;;;;;;;;5037096;28;20602;-74
2021/01/01 03:33:20;;;;;;;20.20;12.97;;;;;;;;;;5055430;28;20562;-75
2021/01/01 03:36:24;;;;;;;19.77;12.60;;;;;;;;;;5050068;28;20591;-74
2021/01/01 03:39:28;;;;;;;19.27;13.13;;;;;;;;;;5043019;28;20621;-74
2021/01/01 03:42:33;;;;;;;22.47;13.60;;;;;;;;;;5037639;28;20998;-74
2021/01/01 03:45:37;;;;;;;20.03;13.43;;;;;;;;;;5024210;28;20587;-75
2021/01/01 03:48:41;;;;;;;19.23;13.33;;;;;;;;;;5035285;28;20919;-74
2021/01/01 03:51:45;;;;;;;19.17;13.47;;;;;;;;;;5036242;28;20647;-75
2021/01/01 03:54:49;;;;;;;20.83;12.63;;;;;;;;;;5023012;28;20567;-74
2021/01/01 03:57:53;;;;;;;22.17;13.80;;;;;;;;;;5035366;28;20547;-74
2021/01/01 04:00:59;;;;;;;21.63;13.10;;;;;;;;;;5049884;28;20669;-74
2021/01/01 04:04:03;;;;;;;20.97;12.60;;;;;;;;;;5042635;28;20546;-74
2021/01/01 04:07:07;;;;;;;22.83;12.90;;;;;;;;;;5054860;28;20543;-74
2021/01/01 04:10:11;;;;;;;22.37;13.70;;;;;;;;;;5034759;28;20584;-74
2021/01/01 04:13:15;;;;;;;21.63;13.40;;;;;;;;;;5041946;28;20590;-75
2021/01/01 04:16:20;;;;;;;22.93;14.67;;;;;;;;;;5054357;28;20585;-74
2021/01/01 04:19:24;;;;;;;25.77;13.90;;;;;;;;;;5042290;28;21242;-75
2021/01/01 04:22:28;;;;;;;22.27;13.87;;;;;;;;;;5054460;28;20617;-74
2021/01/01 04:25:32;;;;;;;23.50;13.80;;;;;;;;;;5041984;28;20602;-74
2021/01/01 04:28:37;;;;;;;19.90;12.93;;;;;;;;;;5054368;28;20622;-74
2021/01/01 04:31:41;;;;;;;22.27;13.80;;;;;;;;;;5041733;28;20649;-74
2021/01/01 04:34:46;;;;;;;19.73;12.50;;;;;;;;;;5054284;28;20603;-74
2021/01/01 04:37:50;;;;;;;23.67;12.50;;;;;;;;;;5022143;28;20969;-74
2021/01/01 04:40:55;;;;;;;20.13;12.63;;;;;;;;;;5022004;28;21223;-74
2021/01/01 04:44:00;;;;;;;19.80;12.53;;;;;;;;;;5040251;28;20988;-74
2021/01/01 04:47:07;;;;;;;22.50;13.80;;;;;;;;;;5053825;28;20633;-74
2021/01/01 04:50:11;;;;;;;20.00;13.60;;;;;;;;;;5041384;28;21206;-75
2021/01/01 04:53:19;;;;;;;23.13;14.17;;;;;;;;;;5041847;28;20554;-74
2021/01/01 04:56:24;;;;;;;22.10;13.07;;;;;;;;;;5060342;22;20692;-74
2021/01/01 04:59:27;;;;;;;22.17;13.80;;;;;;;;;;5073998;28;20664;-74
2021/01/01 05:02:32;;;;;;;20.97;13.10;;;;;;;;;;5053672;28;20625;-74
2021/01/01 05:05:36;;;;;;;23.17;13.73;;;;;;;;;;5059278;28;20597;-74
2021/01/01 05:08:40;;;;;;;21.33;12.50;;;;;;;;;;5073987;28;20603;-74
2021/01/01 05:11:45;;;;;;;23.57;13.23;;;;;;;;;;5073289;28;20657;-74
2021/01/01 05:14:53;;;;;;;22.23;13.97;;;;;;;;;;5073775;28;20547;-74
2021/01/01 05:17:57;;;;;;;23.53;14.13;;;;;;;;;;5060656;28;20579;-74
2021/01/01 05:21:02;;;;;;;22.93;13.80;;;;;;;;;;5061213;28;21245;-74
2021/01/01 05:24:14;;;;;;;22.57;14.00;;;;;;;;;;5073323;28;20598;-74
2021/01/01 05:27:18;;;;;;;21.30;14.17;;;;;;;;;;5041485;28;20618;-74
2021/01/01 05:30:30;;;;;;;24.97;15.77;;;;;;;;;;5053532;28;20551;-74
2021/01/01 05:33:35;;;;;;;27.07;15.70;;;;;;;;;;5053412;28;20563;-74
2021/01/01 05:36:40;;;;;;;25.57;15.73;;;;;;;;;;5066556;28;20613;-74
2021/01/01 05:39:44;;;;;;;25.57;15.43;;;;;;;;;;5049149;28;20635;-74
2021/01/01 05:42:48;;;;;;;28.03;16.40;;;;;;;;;;5073728;28;20553;-74
2021/01/01 05:46:06;;;;;;;23.73;14.50;;;;;;;;;;5071602;28;20597;-74
2021/01/01 05:49:10;;;;;;;23.57;14.73;;;;;;;;;;5060846;28;20563;-74
2021/01/01 05:52:16;;;;;;;24.20;15.27;;;;;;;;;;5061209;28;20641;-73
2021/01/01 05:55:21;;;;;;;25.47;14.97;;;;;;;;;;5059210;28;20936;-74
2021/01/01 05:58:26;;;;;;;28.67;15.20;;;;;;;;;;5044393;28;21171;-74
2021/01/01 06:01:34;;;;;;;27.93;15.67;;;;;;;;;;5053081;28;20665;-74
2021/01/01 06:04:39;;;;;;;27.03;15.83;;;;;;;;;;5040986;28;20546;-74
2021/01/01 06:07:43;;;;;;;25.53;15.57;;;;;;;;;;5047036;28;20630;-74
2021/01/01 06:10:50;;;;;;;25.77;15.60;;;;;;;;;;5060679;28;20626;-74
2021/01/01 06:13:58;;;;;;;23.93;14.43;;;;;;;;;;5060566;28;20547;-74
2021/01/01 06:17:08;;;;;;;25.50;15.77;;;;;;;;;;5048231;28;20547;-74
2021/01/01 06:20:18;;;;;;;27.43;16.50;;;;;;;;;;5040467;28;20614;-74
2021/01/01 06:23:50;;;;;;;25.40;16.07;;;;;;;;;;5040827;28;20598;-74
2021/01/01 06:26:55;;;;;;;25.60;16.03;;;;;;;;;;5053012;28;20587;-74
2021/01/01 06:30:11;;;;;;;26.33;15.60;;;;;;;;;;5052708;28;20541;-74
2021/01/01 06:33:15;;;;;;;27.57;16.37;;;;;;;;;;5030190;28;20607;-74
2021/01/01 06:36:38;;;;;;;25.00;15.17;;;;;;;;;;5052893;28;20621;-73
2021/01/01 06:39:45;;;;;;;28.47;15.13;;;;;;;;;;5060124;28;20589;-73
2021/01/01 06:43:08;;;;;;;25.23;15.27;;;;;;;;;;5053274;28;20985;-73
2021/01/01 06:46:12;;;;;;;26.13;14.67;;;;;;;;;;5064647;28;20891;-74
2021/01/01 06:49:30;;;;;;;26.47;14.67;;;;;;;;;;5057580;28;20950;-74
2021/01/01 06:52:34;;;;;;;22.97;13.57;;;;;;;;;;5056132;28;20649;-74
2021/01/01 06:55:43;;;;;;;27.50;14.50;;;;;;;;;;5056211;28;20555;-74
2021/01/01 06:58:47;;;;;;;23.50;13.83;;;;;;;;;;5075424;28;20625;-74
2021/01/01 07:01:51;;;;;;;22.13;13.50;;;;;;;;;;5072460;28;21059;-74
2021/01/01 07:04:57;;;;;;;24.03;14.63;;;;;;;;;;5076319;28;20546;-73
2021/01/01 07:08:01;;;;;;;26.23;16.07;;;;;;;;;;5051487;28;20601;-74
2021/01/01 07:11:08;;;;;;;21.97;13.60;;;;;;;;;;5046123;28;20644;-73
2021/01/01 07:14:19;;;;;;;24.00;14.17;;;;;;;;;;5021454;28;20586;-74
2021/01/01 07:17:24;;;;;;;23.90;14.23;;;;;;;;;;5050245;28;20598;-74
2021/01/01 07:20:28;;;;;;;22.60;14.20;;;;;;;;;;5075955;28;20987;-74
2021/01/01 07:23:33;;;;;;;24.10;14.27;;;;;;;;;;5063134;28;20549;-74
2021/01/01 07:26:37;;;;;;;22.23;14.80;;;;;;;;;;5075139;28;20550;-74
2021/01/01 07:29:41;;;;;;;24.33;14.77;;;;;;;;;;5055586;28;20550;-74
2021/01/01 07:32:46;;;;;;;28.07;14.83;;;;;;;;;;5055479;28;20935;-73
2021/01/01 07:36:00;;;;;;;25.77;14.80;;;;;;;;;;5055636;28;20546;-74
2021/01/01 07:39:06;;;;;;;26.50;16.17;;;;;;;;;;5042957;28;20609;-74
2021/01/01 07:42:10;;;;;;;23.60;14.50;;;;;;;;;;5055695;28;20666;-74
2021/01/01 07:45:14;;;;;;;25.53;14.87;;;;;;;;;;5055380;28;20625;-74
2021/01/01 07:48:19;;;;;;;25.27;14.90;;;;;;;;;;5059941;28;20617;-74
2021/01/01 07:51:23;;;;;;;24.47;15.03;;;;;;;;;;5075139;28;21071;-74
2021/01/01 07:54:27;;;;;;;24.20;15.03;;;;;;;;;;5062811;28;20560;-74
2021/01/01 07:57:31;;;;;;;25.53;15.33;;;;;;;;;;5053036;28;21202;-74
2021/01/01 08:00:38;;;;;;;30.87;15.60;;;;;;;;;;5055002;28;20666;-74
2021/01/01 08:03:42;;;;;;;28.20;16.97;;;;;;;;;;5061746;28;20577;-74
2021/01/01 08:06:46;;;;;;;26.70;15.57;;;;;;;;;;5057685;28;20655;-74
2021/01/01 08:09:50;;;;;;;25.13;15.33;;;;;;;;;;5054699;28;20559;-74
2021/01/01 08:12:54;;;;;;;31.23;17.17;;;;;;;;;;5042397;28;20538;-74
2021/01/01 08:16:24;;;;;;;23.33;15.10;;;;;;;;;;5057205;28;20546;-73
2021/01/01 08:19:28;;;;;;;21.47;14.03;;;;;;;;;;5064956;28;20588;-73
2021/01/01 08:22:36;;;;;;;26.33;15.80;;;;;;;;;;5062018;28;20656;-74
2021/01/01 08:25:41;;;;;;;24.87;14.77;;;;;;;;;;5074791;28;21078;-74
2021/01/01 08:28:46;;;;;;;23.90;14.60;;;;;;;;;;5031265;28;20546;-74
2021/01/01 08:31:50;;;;;;;23.63;14.20;;;;;;;;;;5054468;28;20627;-74
2021/01/01 08:34:54;;;;;;;29.93;15.60;;;;;;;;;;5054579;28;20562;-74
2021/01/01 08:37:59;;;;;;;23.90;15.33;;;;;;;;;;5067443;28;20590;-74
2021/01/01 08:41:04;;;;;;;23.97;13.83;;;;;;;;;;5074074;28;20674;-73
2021/01/01 08:44:09;;;;;;;25.20;15.97;;;;;;;;;;5074252;28;20545;-74
2021/01/01 08:47:14;;;;;;;27.57;16.70;;;;;;;;;;5066736;28;20586;-74
2021/01/01 08:50:21;;;;;;;26.90;16.20;;;;;;;;;;5030758;28;20566;-74
2021/01/01 08:53:25;;;;;;;24.57;14.37;;;;;;;;;;5052291;28;20597;-74
2021/01/01 08:56:30;;;;;;;24.90;15.47;;;;;;;;;;5072701;28;20632;-74
2021/01/01 08:59:34;;;;;;;27.93;16.23;;;;;;;;;;5053523;28;21092;-74
2021/01/01 09:02:39;;;;;;;28.30;16.57;;;;;;;;;;5053616;28;20997;-74
2021/01/01 09:05:45;;;;;;;29.23;17.20;;;;;;;;;;5053623;28;20547;-74
2021/01/01 09:09:03;;;;;;;25.67;16.20;;;;;;;;;;5073348;28;20597;-74
2021/01/01 09:12:17;;;;;;;27.50;16.43;;;;;;;;;;5053659;28;20614;-74
2021/01/01 09:15:30;;;;;;;26.57;15.90;;;;;;;;;;5041578;28;20544;-74
2021/01/01 09:18:35;;;;;;;27.47;14.47;;;;;;;;;;5058433;28;20594;-74
2021/01/01 09:21:40;;;;;;;26.50;16.37;;;;;;;;;;5073285;28;20656;-74
2021/01/01 09:24:46;;;;;;;25.13;15.63;;;;;;;;;;5061147;28;20554;-74
2021/01/01 09:27:52;;;;;;;30.90;17.50;;;;;;;;;;5057709;28;20586;-73
2021/01/01 09:30:56;;;;;;;29.87;18.37;;;;;;;;;;5053386;28;20966;-74
2021/01/01 09:34:03;;;;;;;51.77;26.63;;;;;;;;;;5073212;28;20590;-74
2021/01/01 09:37:09;;;;;;;36.43;21.17;;;;;;;;;;5064339;28;20626;-74
2021/01/01 09:40:14;;;;;;;27.70;17.50;;;;;;;;;;5040797;28;20574;-73
2021/01/01 09:43:20;;;;;;;30.00;16.73;;;;;;;;;;5062118;28;21116;-74
2021/01/01 09:46:24;;;;;;;26.63;15.80;;;;;;;;;;5072297;28;21143;-74
2021/01/01 09:49:29;;;;;;;23.27;15.30;;;;;;;;;;5053092;28;20582;-73
2021/01/01 09:52:37;;;;;;;26.20;15.93;;;;;;;;;;5060595;28;21180;-74
2021/01/01 09:55:41;;;;;;;25.90;16.47;;;;;;;;;;5060764;28;20539;-74
2021/01/01 09:58:46;;;;;;;24.67;15.63;;;;;;;;;;5057052;28;20599;-73
2021/01/01 10:01:50;;;;;;;27.13;16.57;;;;;;;;;;5063463;28;21223;-74
2021/01/01 10:04:54;;;;;;;23.37;14.90;;;;;;;;;;5073096;28;20542;-73
2021/01/01 10:07:58;;;;;;;23.23;15.00;;;;;;;;;;5073055;28;20937;-73
2021/01/01 10:11:02;;;;;;;25.87;15.90;;;;;;;;;;5072038;28;20620;-74
2021/01/01 10:14:07;;;;;;;23.23;14.20;;;;;;;;;;5057719;28;20539;-74
2021/01/01 10:17:11;;;;;;;28.27;17.00;;;;;;;;;;5076746;28;20922;-74
2021/01/01 10:20:15;;;;;;;24.80;16.63;;;;;;;;;;5077216;28;20866;-73
2021/01/01 10:23:19;;;;;;;23.80;15.73;;;;;;;;;;5045027;28;20935;-74
2021/01/01 10:26:23;;;;;;;28.03;16.40;;;;;;;;;;5033349;28;20543;-74
2021/01/01 10:29:27;;;;;;;25.43;15.73;;;;;;;;;;5056425;28;20602;-74
2021/01/01 10:32:32;;;;;;;25.57;16.87;;;;;;;;;;5069045;28;20988;-73
2021/01/01 10:35:36;;;;;;;25.27;16.27;;;;;;;;;;5061617;28;20591;-72
2021/01/01 10:38:41;;;;;;;26.57;17.10;;;;;;;;;;5044444;28;20554;-73
2021/01/01 10:41:49;;;;;;;29.93;18.20;;;;;;;;;;5056450;28;20646;-73
2021/01/01 10:44:53;;;;;;;20.77;13.73;;;;;;;;;;5064211;28;20589;-73
2021/01/01 10:47:58;;;;;;;26.90;15.07;;;;;;;;;;5060033;28;21163;-72
2021/01/01 10:51:02;;;;;;;29.93;19.70;;;;;;;;;;5056131;28;20617;-72
2021/01/01 10:54:06;;;;;;;29.00;18.67;;;;;;;;;;5057599;28;20665;-73
2021/01/01 10:57:10;;;;;;;23.77;14.10;;;;;;;;;;5076159;28;20964;-73
2021/01/01 11:00:15;;;;;;;19.83;12.77;;;;;;;;;;5076084;28;21147;-73
2021/01/01 11:03:20;;;;;;;20.10;13.80;;;;;;;;;;5075318;28;21199;-73
2021/01/01 11:06:25;;;;;;;18.70;12.83;;;;;;;;;;5055931;28;21136;-73
2021/01/01 11:09:29;;;;;;;19.23;12.93;;;;;;;;;;5055936;28;20184;-73
2021/01/01 11:12:34;;;;;;;18.30;13.20;;;;;;;;;;5055861;28;20216;-73
2021/01/01 12:26:36;;;;;;;26.50;14.10;;;;;;;;;;5074266;28;20188;-72
2021/01/01 12:29:40;;;;;;;18.67;12.20;;;;;;;;;;5072605;28;20191;-73
2021/01/01 12:32:46;;;;;;;20.47;13.23;;;;;;;;;;5067415;28;20183;-73
2021/01/01 12:35:50;;;;;;;17.03;12.43;;;;;;;;;;5041082;28;20184;-73
2021/01/01 12:38:54;;;;;;;18.07;11.77;;;;;;;;;;5054212;28;20181;-73
2021/01/01 12:41:58;;;;;;;17.07;11.60;;;;;;;;;;5053109;28;20685;-73
2021/01/01 12:45:05;;;;;;;15.43;11.60;;;;;;;;;;5054387;28;20627;-72
2021/01/01 12:48:09;;;;;;;18.87;13.00;;;;;;;;;;5054560;28;20188;-73
2021/01/01 12:51:13;;;;;;;20.00;12.27;;;;;;;;;;5042896;28;20215;-73
2021/01/01 12:54:18;;;;;;;25.00;14.27;;;;;;;;;;5058659;28;20187;-73
2021/01/01 12:57:22;;;;;;;36.90;18.80;;;;;;;;;;5069602;28;20204;-73
2021/01/01 13:00:26;;;;;;;27.00;14.87;;;;;;;;;;5059435;28;20199;-73
2021/01/01 13:03:30;;;;;;;19.00;12.80;;;;;;;;;;5063157;28;20224;-73
2021/01/01 13:06:35;;;;;;;19.07;13.10;;;;;;;;;;5053741;28;20204;-73
2021/01/01 13:09:39;;;;;;;27.33;14.97;;;;;;;;;;5053860;28;20247;-73
2021/01/01 13:12:43;;;;;;;21.47;13.20;;;;;;;;;;5042415;28;20192;-73
2021/01/01 13:15:47;;;;;;;20.27;13.20;;;;;;;;;;5049880;28;20191;-74
2021/01/01 13:18:52;;;;;;;23.23;15.87;;;;;;;;;;5044813;28;20196;-73
2021/01/01 13:21:58;;;;;;;16.50;11.80;;;;;;;;;;5053202;28;20686;-73
2021/01/01 13:25:03;;;;;;;20.77;11.40;;;;;;;;;;5053364;28;20204;-73
2021/01/01 13:28:08;;;;;;;20.30;11.10;;;;;;;;;;5053221;28;20199;-73
2021/01/01 13:31:13;;;;;;;16.87;11.90;;;;;;;;;;5064421;28;20698;-73
2021/01/01 13:34:17;;;;;;;17.37;11.93;;;;;;;;;;5041313;28;20627;-73
2021/01/01 13:37:21;;;;;;;24.50;14.53;;;;;;;;;;5073209;28;20171;-73
2021/01/01 13:40:25;;;;;;;32.33;18.40;;;;;;;;;;5053269;28;20191;-73
2021/01/01 13:43:29;;;;;;;18.00;10.60;;;;;;;;;;5060955;28;20594;-73
2021/01/01 13:46:34;;;;;;;15.80;10.77;;;;;;;;;;5064910;22;20713;-74
2021/01/01 13:49:38;;;;;;;17.27;11.37;;;;;;;;;;5058830;28;21202;-73
2021/01/01 13:52:43;;;;;;;16.03;9.53;;;;;;;;;;5043411;28;20612;-74
2021/01/01 13:55:47;;;;;;;15.57;9.67;;;;;;;;;;5032725;28;20560;-74
2021/01/01 13:58:52;;;;;;;15.40;9.70;;;;;;;;;;5033335;28;20617;-74
2021/01/01 14:01:56;;;;;;;14.33;9.57;;;;;;;;;;5020879;28;20631;-74
2021/01/01 14:05:00;;;;;;;16.43;11.30;;;;;;;;;;5020837;28;21140;-74
2021/01/01 14:08:05;;;;;;;17.80;11.17;;;;;;;;;;5033114;28;20197;-73
2021/01/01 14:11:11;;;;;;;20.03;11.30;;;;;;;;;;5033543;28;20627;-74
2021/01/01 14:14:15;;;;;;;18.63;11.63;;;;;;;;;;5033524;28;20540;-73
2021/01/01 14:17:19;;;;;;;42.80;19.83;;;;;;;;;;5032871;28;21082;-73
2021/01/01 14:20:23;;;;;;;23.60;13.67;;;;;;;;;;5032996;28;20539;-74
2021/01/01 14:23:31;;;;;;;24.60;14.87;;;;;;;;;;5020529;28;20908;-73
2021/01/01 14:26:35;;;;;;;20.13;13.00;;;;;;;;;;5032680;28;21161;-74
2021/01/01 14:29:39;;;;;;;27.77;17.50;;;;;;;;;;5033033;28;20547;-74
2021/01/01 14:32:43;;;;;;;22.13;15.13;;;;;;;;;;5032694;28;20899;-74
2021/01/01 14:35:49;;;;;;;30.53;18.83;;;;;;;;;;5032928;28;20544;-73
2021/01/01 14:38:55;;;;;;;21.87;14.43;;;;;;;;;;5032973;28;20560;-74
2021/01/01 14:41:59;;;;;;;20.17;12.77;;;;;;;;;;5032815;28;20615;-74
2021/01/01 14:45:07;;;;;;;18.70;12.33;;;;;;;;;;5032913;28;20528;-74
2021/01/01 14:48:11;;;;;;;22.17;14.40;;;;;;;;;;5032450;28;21106;-74
2021/01/01 14:51:15;;;;;;;25.33;15.03;;;;;;;;;;5032385;28;20622;-74
2021/01/01 14:54:21;;;;;;;24.83;15.63;;;;;;;;;;5020593;28;20591;-74
2021/01/01 14:57:25;;;;;;;25.30;16.07;;;;;;;;;;5032754;28;20540;-74
2021/01/01 15:00:29;;;;;;;23.13;16.23;;;;;;;;;;5036329;28;20540;-74
2021/01/01 15:03:33;;;;;;;25.77;16.23;;;;;;;;;;5024118;28;20592;-73
2021/01/01 15:06:37;;;;;;;24.27;16.10;;;;;;;;;;5039243;28;20942;-74
2021/01/01 15:09:41;;;;;;;24.27;15.27;;;;;;;;;;5042222;28;20939;-74
2021/01/01 15:12:45;;;;;;;25.63;16.10;;;;;;;;;;5041547;28;20587;-73
2021/01/01 15:15:49;;;;;;;22.50;16.90;;;;;;;;;;5023724;28;20606;-73
2021/01/01 15:18:53;;;;;;;29.07;16.20;;;;;;;;;;5035728;28;20598;-74
2021/01/01 15:21:57;;;;;;;28.80;17.30;;;;;;;;;;5003827;28;20616;-74
2021/01/01 15:25:02;;;;;;;29.30;17.93;;;;;;;;;;5015831;28;20592;-74
2021/01/01 15:28:06;;;;;;;32.20;20.60;;;;;;;;;;5007090;28;21164;-74
2021/01/01 15:31:10;;;;;;;32.40;19.87;;;;;;;;;;5023264;28;21192;-74
2021/01/01 15:34:14;;;;;;;28.10;17.57;;;;;;;;;;5023358;28;20587;-74
2021/01/01 15:37:18;;;;;;;26.07;17.90;;;;;;;;;;5035697;28;20887;-74
2021/01/01 15:40:23;;;;;;;31.23;19.87;;;;;;;;;;5023130;28;21133;-74
2021/01/01 15:43:27;;;;;;;30.17;18.23;;;;;;;;;;5022969;28;20619;-74
2021/01/01 15:46:31;;;;;;;33.10;20.03;;;;;;;;;;5023029;28;20610;-74
2021/01/01 15:49:35;;;;;;;34.17;19.67;;;;;;;;;;5035229;28;20543;-74
2021/01/01 15:52:39;;;;;;;26.13;17.83;;;;;;;;;;5023197;28;20623;-74
2021/01/01 15:55:43;;;;;;;27.13;18.53;;;;;;;;;;5023174;28;20598;-74
2021/01/01 15:58:47;;;;;;;27.90;17.67;;;;;;;;;;5003412;28;21153;-74
2021/01/01 16:01:51;;;;;;;27.53;18.13;;;;;;;;;;5014499;28;21198;-74
2021/01/01 16:04:56;;;;;;;29.00;19.83;;;;;;;;;;5020129;28;20647;-74
2021/01/01 16:08:00;;;;;;;26.17;18.20;;;;;;;;;;5023150;28;20996;-74
2021/01/01 16:11:06;;;;;;;24.60;16.73;;;;;;;;;;5034720;28;21208;-75
2021/01/01 16:14:10;;;;;;;28.53;16.97;;;;;;;;;;5022843;28;20544;-74
2021/01/01 16:17:15;;;;;;;28.40;18.13;;;;;;;;;;5032064;28;20575;-74
2021/01/01 16:20:19;;;;;;;25.40;16.70;;;;;;;;;;5041752;28;21156;-74
2021/01/01 16:23:23;;;;;;;27.97;17.43;;;;;;;;;;5042181;28;20606;-74
2021/01/01 16:26:27;;;;;;;29.27;17.83;;;;;;;;;;5051717;28;20586;-74
2021/01/01 16:29:32;;;;;;;25.17;17.20;;;;;;;;;;5022711;28;20540;-74
2021/01/01 16:32:36;;;;;;;28.33;18.00;;;;;;;;;;5022096;28;20647;-74
2021/01/01 16:35:40;;;;;;;29.90;19.03;;;;;;;;;;5034625;28;20844;-74
2021/01/01 16:38:44;;;;;;;24.60;17.53;;;;;;;;;;5014724;28;20889;-74
2021/01/01 16:41:50;;;;;;;26.27;18.13;;;;;;;;;;5002533;28;20967;-74
2021/01/01 16:44:54;;;;;;;28.87;18.80;;;;;;;;;;5014320;28;20644;-74
2021/01/01 16:47:58;;;;;;;26.17;17.73;;;;;;;;;;5035696;28;20942;-75
2021/01/01 16:51:03;;;;;;;26.77;18.60;;;;;;;;;;5053842;28;20630;-74
2021/01/01 16:54:09;;;;;;;29.47;19.40;;;;;;;;;;5053865;28;20591;-74
2021/01/01 16:57:13;;;;;;;29.03;18.13;;;;;;;;;;5018857;28;20610;-74
2021/01/01 17:00:19;;;;;;;28.47;18.73;;;;;;;;;;5041732;28;21069;-74
2021/01/01 17:03:23;;;;;;;25.70;17.70;;;;;;;;;;5053839;28;20594;-74
2021/01/01 17:06:27;;;;;;;26.00;18.00;;;;;;;;;;5035521;28;20587;-74
2021/01/01 17:09:32;;;;;;;25.33;17.30;;;;;;;;;;5044564;28;20572;-74
2021/01/01 17:12:36;;;;;;;24.93;17.10;;;;;;;;;;5033549;28;20639;-73
2021/01/01 17:15:40;;;;;;;28.57;18.37;;;;;;;;;;5034807;28;20615;-74
2021/01/01 17:18:45;;;;;;;27.13;19.03;;;;;;;;;;5018090;28;20611;-74
2021/01/01 17:21:49;;;;;;;27.67;18.13;;;;;;;;;;5021830;28;21193;-74
2021/01/01 17:24:54;;;;;;;28.63;19.70;;;;;;;;;;5043389;28;20632;-74
2021/01/01 17:27:58;;;;;;;27.77;17.57;;;;;;;;;;5021318;28;20572;-74
2021/01/01 17:31:02;;;;;;;26.97;18.90;;;;;;;;;;5033474;28;20618;-74
2021/01/01 17:34:07;;;;;;;28.10;17.33;;;;;;;;;;5021013;28;20580;-74
2021/01/01 17:37:11;;;;;;;27.07;17.50;;;;;;;;;;5032996;28;20584;-74
2021/01/01 17:40:16;;;;;;;29.87;19.20;;;;;;;;;;5033267;28;20587;-74
2021/01/01 17:43:20;;;;;;;27.43;19.07;;;;;;;;;;5033214;28;20623;-74
2021/01/01 17:46:25;;;;;;;27.13;18.23;;;;;;;;;;5033549;28;20606;-74
2021/01/01 17:49:29;;;;;;;34.97;20.33;;;;;;;;;;5022327;28;20540;-74
2021/01/01 17:52:38;;;;;;;35.00;20.63;;;;;;;;;;5051128;28;20643;-73
2021/01/01 17:55:43;;;;;;;30.67;19.47;;;;;;;;;;5040387;28;20648;-73
2021/01/01 17:58:48;;;;;;;47.60;30.00;;;;;;;;;;5053234;28;20547;-74
2021/01/01 18:01:53;;;;;;;48.43;31.20;;;;;;;;;;5013117;28;20956;-74
2021/01/01 18:04:57;;;;;;;43.90;26.30;;;;;;;;;;5039478;28;20635;-74
2021/01/01 18:08:01;;;;;;;34.73;21.00;;;;;;;;;;5038440;28;20958;-74
2021/01/01 18:11:06;;;;;;;28.83;19.33;;;;;;;;;;5013279;28;20616;-73
2021/01/01 18:14:10;;;;;;;27.20;19.07;;;;;;;;;;5018547;28;20615;-74
2021/01/01 18:17:14;;;;;;;30.00;19.17;;;;;;;;;;5020902;28;21095;-74
2021/01/01 18:20:19;;;;;;;26.70;18.53;;;;;;;;;;5043845;28;20582;-74
2021/01/01 18:23:30;;;;;;;32.67;21.70;;;;;;;;;;5040582;28;20555;-74
2021/01/01 18:26:36;;;;;;;30.80;20.27;;;;;;;;;;5030062;28;20599;-73
2021/01/01 18:29:41;;;;;;;33.77;20.73;;;;;;;;;;5033386;28;20540;-74
2021/01/01 18:32:52;;;;;;;31.00;19.63;;;;;;;;;;5021747;28;21196;-73
2021/01/01 18:36:00;;;;;;;32.63;19.53;;;;;;;;;;5037103;28;20548;-74
2021/01/01 18:39:09;;;;;;;28.20;18.53;;;;;;;;;;5045731;28;20623;-73
2021/01/01 18:42:18;;;;;;;26.10;18.17;;;;;;;;;;5030097;28;20991;-74
2021/01/01 18:45:30;;;;;;;30.70;19.73;;;;;;;;;;5052669;28;20993;-74
2021/01/01 18:48:35;;;;;;;29.13;18.37;;;;;;;;;;5018865;28;20596;-74
2021/01/01 18:51:44;;;;;;;27.13;18.80;;;;;;;;;;5036443;28;20630;-74
2021/01/01 18:54:54;;;;;;;32.67;19.73;;;;;;;;;;5036299;28;20555;-73
2021/01/01 18:57:58;;;;;;;29.33;20.10;;;;;;;;;;5037368;28;20587;-74
2021/01/01 19:01:03;;;;;;;27.87;18.77;;;;;;;;;;5029007;28;21045;-74
2021/01/01 19:04:32;;;;;;;28.27;18.27;;;;;;;;;;5016421;28;20604;-73
2021/01/01 19:07:37;;;;;;;25.93;17.70;;;;;;;;;;5017972;28;20934;-74
2021/01/01 19:10:43;;;;;;;27.47;18.43;;;;;;;;;;5054176;28;20646;-75